Highest pressure

Not for real navigation. The accuracy of this data is not assured See disclaimer for more information



ICAO NAME COUNTRY WIND Kt GUST Kt VIS m TEMP/DEW C BARO METAR
KCPW Pagosa Springs, Wolf Creek Pas CO United States 4 0 9999 10/-6 30.72 KCPW 191331Z AUTO 29004KT 10SM CAVOK 10/M06 A3072 RMK AO2
K0CO 15 19 9999 8/1 30.70 K0CO 191337Z AUTO 30015G19KT 10SM CAVOK 08/01 A3070 RMK AO2
KCCU Copper Mountain, Red Cliff Pas CO United States 0 0 9999 13/-5 30.68 KCCU 191330Z AUTO 00000KT 10SM CAVOK 13/M05 A3068 RMK AO2
K4BM Wilkerson Pass CO United States 0 0 9999 13/-7 30.64 K4BM 191333Z AUTO 00000KT 10SM CAVOK 13/M07 A3064 RMK AO2
K5SM Sunlight CO United States 5 0 9999 12/-8 30.59 K5SM 191323Z AUTO 20005KT 10SM CAVOK 12/M08 A3059 RMK AO2

Show more